Time;durP1;ratioP1;P1;durP2;ratioP2;P2;SDS_P1;SDS_P2;PMS_P1;PMS_P2;Temp;Humidity;BMP_temperature;BMP_pressure;BME280_temperature;BME280_humidity;BME280_pressure;Samples;Min_cycle;Max_cycle;Signal;HPM_P1;HPM_P2
2021/07/19 00:01:30;;;;;;;0.25;0.25;;;16.50;99.90;;;;;;5033313;28;20021;-76
2021/07/19 00:03:57;;;;;;;1.10;0.52;;;16.60;99.90;;;;;;5051306;28;20021;-76
2021/07/19 00:06:22;;;;;;;0.30;0.30;;;16.50;99.90;;;;;;5033541;28;20032;-76
2021/07/19 00:08:48;;;;;;;0.00;0.00;;;16.40;99.90;;;;;;5033594;28;20033;-76
2021/07/19 00:11:14;;;;;;;0.00;0.00;;;16.30;99.90;;;;;;5033374;28;20089;-75
2021/07/19 00:13:40;;;;;;;0.00;0.00;;;16.30;99.90;;;;;;5054307;28;20396;-76
2021/07/19 00:16:06;;;;;;;0.00;0.00;;;16.40;99.90;;;;;;5037003;28;20074;-76
2021/07/19 00:18:33;;;;;;;0.35;0.35;;;16.30;99.90;;;;;;5049865;23;20459;-73
2021/07/19 00:20:59;;;;;;;0.00;0.00;;;16.20;99.90;;;;;;5036745;28;20125;-74
2021/07/19 00:23:28;;;;;;;0.00;0.00;;;16.20;99.90;;;;;;5036948;28;20017;-74
2021/07/19 00:25:54;;;;;;;0.00;0.00;;;16.40;99.90;;;;;;5037146;28;20078;-74
2021/07/19 00:28:20;;;;;;;0.28;0.28;;;16.40;99.90;;;;;;5037001;28;20094;-73
2021/07/19 00:30:46;;;;;;;0.28;0.28;;;16.40;99.90;;;;;;5054453;28;20025;-73
2021/07/19 00:33:13;;;;;;;0.00;0.00;;;16.40;99.90;;;;;;5036207;28;20043;-73
2021/07/19 00:35:39;;;;;;;0.00;0.00;;;16.40;99.90;;;;;;5054575;28;20369;-73
2021/07/19 00:38:05;;;;;;;0.20;0.20;;;16.40;99.90;;;;;;5054822;28;20049;-73
2021/07/19 00:40:31;;;;;;;1.55;0.80;;;16.40;99.90;;;;;;5054530;28;20055;-73
2021/07/19 00:42:58;;;;;;;0.95;0.55;;;16.40;99.90;;;;;;5054417;28;20028;-73
2021/07/19 00:45:27;;;;;;;0.55;0.55;;;16.40;99.90;;;;;;5036408;28;20404;-73
2021/07/19 00:47:56;;;;;;;0.00;0.00;;;16.40;99.90;;;;;;5020065;28;20024;-73
2021/07/19 00:50:24;;;;;;;0.70;0.70;;;16.40;99.90;;;;;;5036304;28;20392;-73
2021/07/19 00:52:56;;;;;;;1.70;1.60;;;16.30;99.90;;;;;;5054151;28;20021;-73
2021/07/19 00:55:25;;;;;;;0.05;0.05;;;16.20;99.90;;;;;;5054225;28;20431;-73
2021/07/19 00:57:54;;;;;;;1.83;1.33;;;16.10;99.90;;;;;;5054183;28;20028;-73
2021/07/19 01:00:20;;;;;;;0.00;0.00;;;16.10;99.90;;;;;;5036254;28;20048;-73
2021/07/19 01:02:49;;;;;;;0.00;0.00;;;16.20;99.90;;;;;;5053923;28;20476;-73
2021/07/19 01:05:16;;;;;;;0.00;0.00;;;16.30;99.90;;;;;;5036242;28;20480;-73
2021/07/19 01:07:44;;;;;;;0.00;0.00;;;16.30;99.90;;;;;;5053966;28;20063;-73
2021/07/19 01:10:17;;;;;;;1.15;0.52;;;16.40;99.90;;;;;;5054172;28;20025;-73
2021/07/19 01:12:55;;;;;;;0.00;0.00;;;16.30;99.90;;;;;;5019375;28;20025;-72
2021/07/19 01:15:23;;;;;;;0.00;0.00;;;16.40;99.90;;;;;;5035991;28;20032;-73
2021/07/19 01:17:49;;;;;;;0.38;0.38;;;16.50;99.90;;;;;;5053797;28;20009;-73
2021/07/19 01:20:17;;;;;;;1.15;1.08;;;16.60;99.90;;;;;;5053571;28;20155;-73
2021/07/19 01:23:20;;;;;;;0.00;0.00;;;16.40;99.90;;;;;;5053202;28;20108;-73
2021/07/19 01:25:46;;;;;;;0.10;0.10;;;16.40;99.90;;;;;;5053556;28;20028;-74
2021/07/19 01:28:30;;;;;;;0.00;0.00;;;16.40;99.90;;;;;;5053611;28;20029;-73
2021/07/19 01:31:00;;;;;;;0.00;0.00;;;16.40;99.90;;;;;;5035686;28;20031;-74
2021/07/19 01:33:28;;;;;;;0.45;0.28;;;16.50;99.90;;;;;;5053230;28;20029;-74
2021/07/19 01:35:56;;;;;;;0.00;0.00;;;16.50;99.90;;;;;;5053738;28;20358;-73
2021/07/19 01:38:22;;;;;;;0.20;0.20;;;16.40;99.90;;;;;;5053400;28;20029;-73
2021/07/19 01:40:49;;;;;;;0.43;0.30;;;16.30;99.90;;;;;;5053448;28;20050;-73
2021/07/19 01:43:16;;;;;;;0.13;0.13;;;16.10;99.90;;;;;;5053263;28;20028;-74
2021/07/19 01:45:42;;;;;;;0.00;0.00;;;16.10;99.90;;;;;;5053376;28;20400;-74
2021/07/19 01:48:10;;;;;;;0.00;0.00;;;16.10;99.90;;;;;;5053426;28;20021;-73
2021/07/19 01:50:37;;;;;;;0.00;0.00;;;16.20;99.90;;;;;;5035495;28;20025;-73
2021/07/19 01:53:04;;;;;;;0.00;0.00;;;16.30;99.90;;;;;;5035579;28;20033;-74
2021/07/19 01:55:31;;;;;;;0.00;0.00;;;16.30;99.90;;;;;;5019714;28;20046;-74
2021/07/19 01:57:58;;;;;;;0.00;0.00;;;16.40;99.90;;;;;;5053659;28;20042;-74
2021/07/19 02:00:24;;;;;;;0.00;0.00;;;16.40;99.90;;;;;;5053521;28;20392;-73
2021/07/19 02:02:52;;;;;;;0.00;0.00;;;16.40;99.90;;;;;;5035110;28;20033;-73
2021/07/19 02:05:23;;;;;;;0.00;0.00;;;16.60;99.90;;;;;;5053106;28;20029;-74
2021/07/19 02:07:51;;;;;;;0.00;0.00;;;16.70;99.90;;;;;;5035438;28;20028;-73
2021/07/19 02:10:18;;;;;;;0.00;0.00;;;16.60;99.90;;;;;;5018742;28;20053;-74
2021/07/19 02:12:45;;;;;;;1.85;0.98;;;16.40;99.90;;;;;;5018315;28;20514;-74
2021/07/19 02:15:19;;;;;;;0.00;0.00;;;16.20;99.90;;;;;;5034786;28;20104;-74
2021/07/19 02:17:50;;;;;;;0.00;0.00;;;16.10;99.90;;;;;;5052542;28;20017;-73
2021/07/19 02:20:17;;;;;;;1.85;1.33;;;16.00;99.90;;;;;;5052593;28;20025;-73
2021/07/19 02:22:45;;;;;;;0.00;0.00;;;15.80;99.90;;;;;;5034426;28;20029;-74
2021/07/19 02:25:13;;;;;;;0.00;0.00;;;15.80;99.90;;;;;;5052445;28;20044;-74
2021/07/19 02:27:42;;;;;;;0.00;0.00;;;15.80;99.90;;;;;;5052560;28;20017;-74
2021/07/19 02:30:10;;;;;;;0.00;0.00;;;15.90;99.90;;;;;;5052403;28;20021;-74
2021/07/19 02:32:39;;;;;;;0.00;0.00;;;15.90;99.90;;;;;;5034331;28;20021;-74
2021/07/19 02:35:09;;;;;;;0.00;0.00;;;16.00;99.90;;;;;;5051739;28;20492;-73
2021/07/19 02:37:43;;;;;;;0.00;0.00;;;15.90;99.90;;;;;;5052310;28;20469;-74
2021/07/19 02:40:11;;;;;;;0.45;0.45;;;15.90;99.90;;;;;;5052238;28;20499;-74
2021/07/19 02:42:40;;;;;;;0.10;0.10;;;15.80;99.90;;;;;;5051821;28;20066;-73
2021/07/19 02:45:08;;;;;;;0.35;0.20;;;15.60;99.90;;;;;;5052132;28;20062;-74
2021/07/19 02:47:35;;;;;;;0.00;0.00;;;15.60;99.90;;;;;;5052180;28;20079;-74
2021/07/19 02:50:02;;;;;;;0.00;0.00;;;15.50;99.90;;;;;;5052095;28;20029;-73
2021/07/19 02:52:29;;;;;;;0.00;0.00;;;15.50;99.90;;;;;;5051776;28;20016;-74
2021/07/19 02:54:55;;;;;;;0.20;0.20;;;15.50;99.90;;;;;;5051938;28;20017;-73
2021/07/19 02:57:22;;;;;;;0.00;0.00;;;15.50;99.90;;;;;;5034506;28;20128;-74
2021/07/19 02:59:47;;;;;;;0.00;0.00;;;15.60;99.90;;;;;;5052030;28;20686;-73
2021/07/19 03:02:16;;;;;;;0.00;0.00;;;15.60;99.90;;;;;;5017469;28;20017;-74
2021/07/19 03:04:42;;;;;;;0.13;0.13;;;15.50;99.90;;;;;;5051929;28;20036;-74
2021/07/19 03:07:10;;;;;;;3.00;0.85;;;15.60;99.90;;;;;;5051883;28;20036;-74
2021/07/19 03:09:39;;;;;;;0.20;0.20;;;15.50;99.90;;;;;;5033796;28;20115;-73
2021/07/19 03:12:06;;;;;;;0.00;0.00;;;15.50;99.90;;;;;;5017285;28;20166;-74
2021/07/19 03:14:35;;;;;;;0.10;0.10;;;15.50;99.90;;;;;;5051584;28;20028;-74
2021/07/19 03:17:02;;;;;;;0.00;0.00;;;15.60;99.90;;;;;;5033863;28;20017;-74
2021/07/19 03:19:29;;;;;;;0.00;0.00;;;15.60;99.90;;;;;;5017377;28;20095;-74
2021/07/19 03:22:01;;;;;;;0.00;0.00;;;15.80;99.90;;;;;;5051550;28;20025;-74
2021/07/19 03:24:27;;;;;;;0.00;0.00;;;15.80;99.90;;;;;;5033745;28;20120;-74
2021/07/19 03:26:54;;;;;;;0.00;0.00;;;15.90;99.90;;;;;;5033935;28;20481;-74
2021/07/19 03:29:22;;;;;;;0.00;0.00;;;15.90;99.90;;;;;;5051717;28;20033;-73
2021/07/19 03:31:48;;;;;;;0.00;0.00;;;15.90;99.90;;;;;;5051596;28;20055;-74
2021/07/19 03:34:14;;;;;;;0.65;0.65;;;15.90;99.90;;;;;;5051529;28;20022;-74
2021/07/19 03:36:40;;;;;;;1.67;1.00;;;15.60;99.90;;;;;;5051473;28;20017;-73
2021/07/19 03:39:08;;;;;;;0.20;0.20;;;15.40;99.90;;;;;;5034049;28;20369;-74
2021/07/19 03:41:34;;;;;;;0.03;0.03;;;15.20;99.90;;;;;;5017094;28;20021;-73
2021/07/19 03:44:01;;;;;;;0.00;0.00;;;15.00;99.90;;;;;;5051493;28;20035;-74
2021/07/19 03:46:28;;;;;;;0.08;0.08;;;15.00;99.90;;;;;;5018728;28;20033;-74
2021/07/19 03:48:54;;;;;;;0.03;0.03;;;15.00;99.90;;;;;;5021182;28;20419;-74
2021/07/19 03:51:21;;;;;;;0.30;0.22;;;15.00;99.90;;;;;;5055108;28;20489;-73
2021/07/19 03:53:47;;;;;;;0.00;0.00;;;15.00;99.90;;;;;;5037305;28;20029;-74
2021/07/19 03:56:13;;;;;;;0.15;0.15;;;15.10;99.90;;;;;;5055388;28;20017;-74
2021/07/19 03:58:39;;;;;;;0.00;0.00;;;15.20;99.90;;;;;;5055227;28;20029;-73
2021/07/19 04:01:06;;;;;;;0.10;0.10;;;15.20;99.90;;;;;;5020766;28;20075;-73
2021/07/19 04:03:46;;;;;;;0.00;0.00;;;15.40;99.90;;;;;;5055157;28;20029;-74
2021/07/19 04:06:18;;;;;;;0.00;0.00;;;15.50;99.90;;;;;;5020839;28;20033;-73
2021/07/19 04:08:45;;;;;;;0.05;0.05;;;15.50;99.90;;;;;;5037236;28;20362;-74
2021/07/19 04:11:14;;;;;;;0.65;0.65;;;15.40;99.90;;;;;;5036944;28;20392;-74
2021/07/19 04:13:41;;;;;;;0.00;0.00;;;15.40;99.90;;;;;;5054896;28;20488;-74
2021/07/19 04:16:08;;;;;;;0.30;0.17;;;15.30;99.90;;;;;;5037132;28;20028;-74
2021/07/19 04:18:33;;;;;;;0.10;0.10;;;15.10;99.90;;;;;;5036819;28;20025;-74
2021/07/19 04:21:00;;;;;;;0.80;0.50;;;15.10;99.90;;;;;;5054677;28;20020;-74
2021/07/19 04:23:26;;;;;;;0.35;0.35;;;15.10;99.90;;;;;;5054729;28;20025;-74
2021/07/19 04:25:52;;;;;;;0.00;0.00;;;15.00;99.90;;;;;;5037045;28;20472;-74
2021/07/19 04:28:21;;;;;;;0.00;0.00;;;15.00;99.90;;;;;;5054802;28;20036;-74
2021/07/19 04:30:49;;;;;;;0.20;0.20;;;15.00;99.90;;;;;;5036711;28;20027;-74
2021/07/19 04:33:17;;;;;;;0.00;0.00;;;15.10;99.90;;;;;;5054524;28;20035;-74
2021/07/19 04:35:45;;;;;;;0.20;0.20;;;15.20;99.90;;;;;;5036553;28;20031;-74
2021/07/19 04:38:16;;;;;;;0.10;0.10;;;15.20;99.90;;;;;;5020116;28;20116;-74
2021/07/19 04:40:46;;;;;;;1.85;0.68;;;15.20;99.90;;;;;;5036539;28;20401;-74
2021/07/19 04:43:12;;;;;;;0.25;0.25;;;15.20;99.90;;;;;;5036697;28;20029;-74
2021/07/19 04:45:38;;;;;;;0.35;0.28;;;15.10;99.90;;;;;;5036365;28;20477;-74
2021/07/19 04:48:04;;;;;;;0.00;0.00;;;15.10;99.90;;;;;;5036555;28;20087;-74
2021/07/19 04:50:29;;;;;;;0.00;0.00;;;15.10;99.90;;;;;;5036351;28;20029;-74
2021/07/19 04:52:55;;;;;;;0.00;0.00;;;15.20;99.90;;;;;;5035935;28;20029;-74
2021/07/19 04:55:23;;;;;;;0.00;0.00;;;15.40;99.90;;;;;;5021361;28;20017;-74
2021/07/19 04:57:53;;;;;;;0.00;0.00;;;15.50;99.90;;;;;;5059427;28;20055;-74
2021/07/19 05:00:19;;;;;;;0.00;0.00;;;15.70;99.90;;;;;;5070918;28;20013;-74
2021/07/19 05:02:47;;;;;;;0.60;0.60;;;15.80;99.90;;;;;;5059941;28;20146;-74
2021/07/19 05:05:20;;;;;;;0.00;0.00;;;15.80;99.90;;;;;;5052320;28;20469;-74
2021/07/19 05:07:47;;;;;;;0.03;0.03;;;15.80;99.90;;;;;;5036020;28;20021;-74
2021/07/19 05:10:15;;;;;;;2.50;1.13;;;15.80;99.90;;;;;;5019167;28;20499;-76
2021/07/19 05:12:44;;;;;;;1.38;0.30;;;15.70;99.90;;;;;;5036025;28;20017;-74
2021/07/19 05:15:14;;;;;;;1.27;0.73;;;15.70;99.90;;;;;;5052230;28;20027;-75
2021/07/19 05:17:41;;;;;;;0.00;0.00;;;15.70;99.90;;;;;;5053377;28;20021;-74
2021/07/19 05:20:15;;;;;;;0.00;0.00;;;15.80;99.90;;;;;;5053298;28;20090;-74
2021/07/19 05:22:49;;;;;;;0.00;0.00;;;15.90;99.90;;;;;;5057623;28;20078;-74
2021/07/19 05:25:17;;;;;;;0.20;0.20;;;16.10;99.90;;;;;;5066149;28;20060;-74
2021/07/19 05:28:06;;;;;;;0.00;0.00;;;16.20;99.90;;;;;;5052287;28;20035;-74
2021/07/19 05:30:35;;;;;;;0.00;0.00;;;16.20;99.90;;;;;;5051210;28;20112;-74
2021/07/19 05:33:01;;;;;;;0.00;0.00;;;16.20;99.90;;;;;;5053317;28;20051;-74
2021/07/19 05:35:27;;;;;;;0.00;0.00;;;16.30;99.90;;;;;;5052599;28;20029;-74
2021/07/19 05:37:52;;;;;;;0.00;0.00;;;16.30;99.90;;;;;;5052048;28;20435;-74
2021/07/19 05:40:19;;;;;;;0.00;0.00;;;16.20;99.90;;;;;;5049461;28;20385;-74
2021/07/19 05:42:45;;;;;;;0.35;0.30;;;16.30;99.90;;;;;;5053234;28;20021;-74
2021/07/19 05:45:13;;;;;;;0.75;0.75;;;16.40;99.90;;;;;;5018586;28;20562;-73
2021/07/19 05:47:39;;;;;;;1.55;1.15;;;16.40;99.90;;;;;;5052954;28;20523;-74
2021/07/19 05:50:06;;;;;;;0.05;0.05;;;16.40;99.90;;;;;;5034304;28;20017;-74
2021/07/19 05:52:33;;;;;;;0.90;0.80;;;16.40;99.90;;;;;;5053012;28;20382;-74
2021/07/19 05:54:59;;;;;;;0.10;0.10;;;16.40;99.90;;;;;;5052222;28;20029;-74
2021/07/19 05:57:28;;;;;;;0.00;0.00;;;16.40;99.90;;;;;;5051787;28;20036;-74
2021/07/19 05:59:56;;;;;;;0.00;0.00;;;16.50;99.90;;;;;;5051739;28;20535;-73
2021/07/19 06:02:25;;;;;;;0.00;0.00;;;16.80;99.90;;;;;;5053007;28;20017;-74
2021/07/19 06:04:51;;;;;;;0.15;0.15;;;17.10;99.90;;;;;;5051405;28;20422;-74
2021/07/19 06:07:17;;;;;;;0.98;0.85;;;17.20;99.90;;;;;;5052209;28;20107;-74
